RKPC/CJU METAR and TAF weather

Enter ICAO airport designator
Station Type Date Time Source
RKPC METAR 2020/09/24 11:00 UTC NOAA

RKPC 241100Z 11007KT 9999 BKN025 BKN140 21/19 Q1012 NOSIG


Station Type Date Time Source
RKPC Decoded METAR 2020/09/24 11:00 UTC NOAA

Cheju International Airport, Korea, South (RKPC) 33-30N 126-30E 28M
Sep 24, 2020 - 07:00 AM EDT / 2020.09.24 1100 UTC
Wind: from the ESE (110 degrees) at 8 MPH (7 KT):0
Visibility: greater than 7 mile(s):0
Sky conditions: mostly cloudy
Temperature: 69 F (21 C)
Dew Point: 66 F (19 C)
Relative Humidity: 88%
Pressure (altimeter): 29.88 in. Hg (1012 hPa)
ob: RKPC 241100Z 11007KT 9999 BKN025 BKN140 21/19 Q1012 NOSIG
cycle: 11

Station Type Date Time Source
RKPC TAF 2020/09/24 12:07 UTC NOAA

TAF RKPC 241100Z 2412/2518 12007KT 9999 BKN030 BKN120 TN19/2421Z TX23/2505Z
BECMG 2418/2419 19006KT
BECMG 2423/2424 35007KT SCT030
BECMG 2511/2512 20005KT

Example: see airport list